sensor_id;sensor_type;location;lat;lon;timestamp;P1;durP1;ratioP1;P2;durP2;ratioP2
67429;SDS011;54298;52.076;5.264;2024-01-11T00:01:56;13.0;;;6.7;;
67429;SDS011;54298;52.076;5.264;2024-01-11T00:05:08;10.8;;;6.5;;
67429;SDS011;54298;52.076;5.264;2024-01-11T00:06:45;12.7;;;6.9;;
67429;SDS011;54298;52.076;5.264;2024-01-11T00:08:21;14.3;;;7.1;;
67429;SDS011;54298;52.076;5.264;2024-01-11T00:09:57;11.2;;;7.5;;
67429;SDS011;54298;52.076;5.264;2024-01-11T00:13:09;11.9;;;6.4;;
67429;SDS011;54298;52.076;5.264;2024-01-11T00:14:46;12.1;;;7.0;;
67429;SDS011;54298;52.076;5.264;2024-01-11T00:16:21;10.21;;;6.6;;
67429;SDS011;54298;52.076;5.264;2024-01-11T00:19:34;8.9;;;5.9;;
67429;SDS011;54298;52.076;5.264;2024-01-11T00:21:10;11.2;;;6.9;;
67429;SDS011;54298;52.076;5.264;2024-01-11T00:22:46;12.7;;;7.0;;
67429;SDS011;54298;52.076;5.264;2024-01-11T00:25:58;14.5;;;6.7;;
67429;SDS011;54298;52.076;5.264;2024-01-11T00:27:34;14.5;;;6.9;;
67429;SDS011;54298;52.076;5.264;2024-01-11T00:29:10;10.8;;;6.3;;
67429;SDS011;54298;52.076;5.264;2024-01-11T00:32:22;11.7;;;7.2;;
67429;SDS011;54298;52.076;5.264;2024-01-11T00:33:58;10.5;;;6.3;;
67429;SDS011;54298;52.076;5.264;2024-01-11T00:35:35;12.4;;;6.6;;
67429;SDS011;54298;52.076;5.264;2024-01-11T00:37:11;9.5;;;6.0;;
67429;SDS011;54298;52.076;5.264;2024-01-11T00:40:23;11.8;;;6.0;;
67429;SDS011;54298;52.076;5.264;2024-01-11T00:41:59;13.8;;;7.0;;
67429;SDS011;54298;52.076;5.264;2024-01-11T00:43:35;17.5;;;6.9;;
67429;SDS011;54298;52.076;5.264;2024-01-11T00:46:47;11.6;;;7.0;;
67429;SDS011;54298;52.076;5.264;2024-01-11T00:48:23;11.9;;;6.5;;
67429;SDS011;54298;52.076;5.264;2024-01-11T00:49:59;11.3;;;6.7;;
67429;SDS011;54298;52.076;5.264;2024-01-11T00:53:12;11.3;;;6.8;;
67429;SDS011;54298;52.076;5.264;2024-01-11T00:54:48;14.2;;;7.1;;
67429;SDS011;54298;52.076;5.264;2024-01-11T00:56:24;13.0;;;6.7;;
67429;SDS011;54298;52.076;5.264;2024-01-11T00:58:00;15.4;;;7.8;;
67429;SDS011;54298;52.076;5.264;2024-01-11T01:01:12;14.7;;;7.2;;
67429;SDS011;54298;52.076;5.264;2024-01-11T01:02:48;12.5;;;6.9;;
67429;SDS011;54298;52.076;5.264;2024-01-11T01:04:24;9.81;;;6.8;;
67429;SDS011;54298;52.076;5.264;2024-01-11T01:07:36;13.2;;;7.2;;
67429;SDS011;54298;52.076;5.264;2024-01-11T01:09:12;16.2;;;7.8;;
67429;SDS011;54298;52.076;5.264;2024-01-11T01:10:49;14.2;;;7.2;;
67429;SDS011;54298;52.076;5.264;2024-01-11T01:14:01;12.4;;;6.8;;
67429;SDS011;54298;52.076;5.264;2024-01-11T01:15:37;11.9;;;6.9;;
67429;SDS011;54298;52.076;5.264;2024-01-11T01:17:13;16.0;;;7.6;;
67429;SDS011;54298;52.076;5.264;2024-01-11T01:20:25;15.6;;;7.2;;
67429;SDS011;54298;52.076;5.264;2024-01-11T01:22:01;10.0;;;6.6;;
67429;SDS011;54298;52.076;5.264;2024-01-11T01:23:37;12.6;;;7.7;;
67429;SDS011;54298;52.076;5.264;2024-01-11T01:25:13;13.4;;;7.8;;
67429;SDS011;54298;52.076;5.264;2024-01-11T01:28:26;14.7;;;7.4;;
67429;SDS011;54298;52.076;5.264;2024-01-11T01:30:02;14.8;;;7.7;;
67429;SDS011;54298;52.076;5.264;2024-01-11T01:31:39;13.9;;;7.4;;
67429;SDS011;54298;52.076;5.264;2024-01-11T01:34:51;13.3;;;7.1;;
67429;SDS011;54298;52.076;5.264;2024-01-11T01:36:27;14.6;;;7.5;;
67429;SDS011;54298;52.076;5.264;2024-01-11T01:38:03;12.7;;;7.2;;
67429;SDS011;54298;52.076;5.264;2024-01-11T01:41:15;12.1;;;7.0;;
67429;SDS011;54298;52.076;5.264;2024-01-11T01:42:54;12.0;;;7.5;;
67429;SDS011;54298;52.076;5.264;2024-01-11T01:44:33;14.4;;;7.1;;
67429;SDS011;54298;52.076;5.264;2024-01-11T01:46:10;19.3;;;8.2;;
67429;SDS011;54298;52.076;5.264;2024-01-11T01:49:23;11.8;;;7.2;;
67429;SDS011;54298;52.076;5.264;2024-01-11T01:51:00;14.7;;;7.8;;
67429;SDS011;54298;52.076;5.264;2024-01-11T01:52:38;12.0;;;7.4;;
67429;SDS011;54298;52.076;5.264;2024-01-11T01:55:56;15.0;;;7.8;;
67429;SDS011;54298;52.076;5.264;2024-01-11T01:57:33;13.5;;;8.5;;
67429;SDS011;54298;52.076;5.264;2024-01-11T01:59:10;15.0;;;7.7;;
67429;SDS011;54298;52.076;5.264;2024-01-11T02:00:48;15.5;;;8.0;;
67429;SDS011;54298;52.076;5.264;2024-01-11T02:04:04;17.8;;;8.1;;
67429;SDS011;54298;52.076;5.264;2024-01-11T02:05:40;14.3;;;8.1;;
67429;SDS011;54298;52.076;5.264;2024-01-11T02:07:16;14.7;;;8.2;;
67429;SDS011;54298;52.076;5.264;2024-01-11T02:10:31;12.9;;;8.2;;
67429;SDS011;54298;52.076;5.264;2024-01-11T02:12:08;13.9;;;8.31;;
67429;SDS011;54298;52.076;5.264;2024-01-11T02:13:45;12.9;;;7.7;;
67429;SDS011;54298;52.076;5.264;2024-01-11T02:15:21;13.9;;;7.9;;
67429;SDS011;54298;52.076;5.264;2024-01-11T02:18:33;13.9;;;7.7;;
67429;SDS011;54298;52.076;5.264;2024-01-11T02:20:11;15.8;;;8.31;;
67429;SDS011;54298;52.076;5.264;2024-01-11T02:21:48;10.9;;;7.2;;
67429;SDS011;54298;52.076;5.264;2024-01-11T02:25:06;13.3;;;8.1;;
67429;SDS011;54298;52.076;5.264;2024-01-11T02:26:57;15.7;;;8.81;;
67429;SDS011;54298;52.076;5.264;2024-01-11T02:28:34;17.8;;;8.1;;
67429;SDS011;54298;52.076;5.264;2024-01-11T02:30:10;11.8;;;7.7;;
67429;SDS011;54298;52.076;5.264;2024-01-11T02:33:23;15.6;;;8.4;;
67429;SDS011;54298;52.076;5.264;2024-01-11T02:34:59;13.9;;;8.4;;
67429;SDS011;54298;52.076;5.264;2024-01-11T02:36:38;13.2;;;7.9;;
67429;SDS011;54298;52.076;5.264;2024-01-11T02:39:51;13.4;;;8.1;;
67429;SDS011;54298;52.076;5.264;2024-01-11T02:41:29;15.0;;;8.5;;
67429;SDS011;54298;52.076;5.264;2024-01-11T02:43:07;15.1;;;8.6;;
67429;SDS011;54298;52.076;5.264;2024-01-11T02:44:44;17.91;;;8.81;;
67429;SDS011;54298;52.076;5.264;2024-01-11T02:47:56;13.3;;;7.7;;
67429;SDS011;54298;52.076;5.264;2024-01-11T02:49:32;17.41;;;8.4;;
67429;SDS011;54298;52.076;5.264;2024-01-11T02:51:08;15.5;;;8.81;;
67429;SDS011;54298;52.076;5.264;2024-01-11T02:54:20;17.11;;;8.71;;
67429;SDS011;54298;52.076;5.264;2024-01-11T02:55:56;16.11;;;8.2;;
67429;SDS011;54298;52.076;5.264;2024-01-11T02:57:32;13.4;;;8.5;;
67429;SDS011;54298;52.076;5.264;2024-01-11T03:00:48;21.8;;;9.0;;
67429;SDS011;54298;52.076;5.264;2024-01-11T03:02:24;18.11;;;8.71;;
67429;SDS011;54298;52.076;5.264;2024-01-11T03:04:00;16.2;;;8.1;;
67429;SDS011;54298;52.076;5.264;2024-01-11T03:05:35;16.8;;;8.1;;
67429;SDS011;54298;52.076;5.264;2024-01-11T03:08:48;17.2;;;8.71;;
67429;SDS011;54298;52.076;5.264;2024-01-11T03:10:24;16.61;;;8.81;;
67429;SDS011;54298;52.076;5.264;2024-01-11T03:12:00;18.3;;;8.81;;
67429;SDS011;54298;52.076;5.264;2024-01-11T03:15:12;14.1;;;7.9;;
67429;SDS011;54298;52.076;5.264;2024-01-11T03:16:49;14.7;;;9.0;;
67429;SDS011;54298;52.076;5.264;2024-01-11T03:18:25;15.5;;;9.1;;
67429;SDS011;54298;52.076;5.264;2024-01-11T03:21:41;14.0;;;8.31;;
67429;SDS011;54298;52.076;5.264;2024-01-11T03:23:18;17.5;;;8.5;;
67429;SDS011;54298;52.076;5.264;2024-01-11T03:24:54;11.7;;;7.8;;
67429;SDS011;54298;52.076;5.264;2024-01-11T03:26:30;15.2;;;9.1;;
67429;SDS011;54298;52.076;5.264;2024-01-11T03:29:42;20.41;;;8.71;;
67429;SDS011;54298;52.076;5.264;2024-01-11T03:31:18;16.3;;;8.4;;
67429;SDS011;54298;52.076;5.264;2024-01-11T03:32:54;15.9;;;9.21;;
67429;SDS011;54298;52.076;5.264;2024-01-11T03:36:07;16.4;;;9.71;;
67429;SDS011;54298;52.076;5.264;2024-01-11T03:37:44;18.5;;;10.0;;
67429;SDS011;54298;52.076;5.264;2024-01-11T03:39:20;18.5;;;10.0;;
67429;SDS011;54298;52.076;5.264;2024-01-11T03:42:32;18.2;;;10.7;;
67429;SDS011;54298;52.076;5.264;2024-01-11T03:44:08;18.7;;;10.3;;
67429;SDS011;54298;52.076;5.264;2024-01-11T03:45:44;18.3;;;10.0;;
67429;SDS011;54298;52.076;5.264;2024-01-11T03:48:56;17.11;;;9.4;;
67429;SDS011;54298;52.076;5.264;2024-01-11T03:50:32;18.11;;;10.6;;
67429;SDS011;54298;52.076;5.264;2024-01-11T03:52:08;19.5;;;10.1;;
67429;SDS011;54298;52.076;5.264;2024-01-11T03:53:45;18.0;;;10.1;;
67429;SDS011;54298;52.076;5.264;2024-01-11T03:56:57;17.41;;;11.1;;
67429;SDS011;54298;52.076;5.264;2024-01-11T03:58:33;21.1;;;9.9;;
67429;SDS011;54298;52.076;5.264;2024-01-11T04:00:11;15.4;;;10.21;;
67429;SDS011;54298;52.076;5.264;2024-01-11T04:03:24;20.11;;;10.9;;
67429;SDS011;54298;52.076;5.264;2024-01-11T04:05:00;21.0;;;11.3;;
67429;SDS011;54298;52.076;5.264;2024-01-11T04:06:36;19.3;;;11.0;;
67429;SDS011;54298;52.076;5.264;2024-01-11T04:09:48;18.0;;;11.1;;
67429;SDS011;54298;52.076;5.264;2024-01-11T04:11:26;17.5;;;11.3;;
67429;SDS011;54298;52.076;5.264;2024-01-11T04:13:03;24.9;;;12.7;;
67429;SDS011;54298;52.076;5.264;2024-01-11T04:14:39;18.11;;;11.3;;
67429;SDS011;54298;52.076;5.264;2024-01-11T04:17:51;19.5;;;11.7;;
67429;SDS011;54298;52.076;5.264;2024-01-11T04:19:27;24.3;;;12.1;;
67429;SDS011;54298;52.076;5.264;2024-01-11T04:21:03;20.8;;;11.9;;
67429;SDS011;54298;52.076;5.264;2024-01-11T04:24:15;20.11;;;12.3;;
67429;SDS011;54298;52.076;5.264;2024-01-11T04:25:51;28.4;;;12.7;;
67429;SDS011;54298;52.076;5.264;2024-01-11T04:27:27;20.7;;;12.2;;
67429;SDS011;54298;52.076;5.264;2024-01-11T04:30:41;23.8;;;13.2;;
67429;SDS011;54298;52.076;5.264;2024-01-11T04:32:17;27.8;;;12.6;;
67429;SDS011;54298;52.076;5.264;2024-01-11T04:33:53;21.7;;;14.3;;
67429;SDS011;54298;52.076;5.264;2024-01-11T04:37:05;22.0;;;13.8;;
67429;SDS011;54298;52.076;5.264;2024-01-11T04:38:42;21.0;;;12.7;;
67429;SDS011;54298;52.076;5.264;2024-01-11T04:40:18;24.0;;;14.1;;
67429;SDS011;54298;52.076;5.264;2024-01-11T04:41:54;21.1;;;12.8;;
67429;SDS011;54298;52.076;5.264;2024-01-11T04:45:07;24.2;;;13.4;;
67429;SDS011;54298;52.076;5.264;2024-01-11T04:46:43;22.4;;;13.1;;
67429;SDS011;54298;52.076;5.264;2024-01-11T04:48:20;21.3;;;13.6;;
67429;SDS011;54298;52.076;5.264;2024-01-11T04:51:32;23.1;;;13.7;;
67429;SDS011;54298;52.076;5.264;2024-01-11T04:53:08;24.4;;;13.9;;
67429;SDS011;54298;52.076;5.264;2024-01-11T04:54:44;25.7;;;14.0;;
67429;SDS011;54298;52.076;5.264;2024-01-11T04:57:56;24.3;;;14.1;;
67429;SDS011;54298;52.076;5.264;2024-01-11T04:59:32;23.6;;;14.9;;
67429;SDS011;54298;52.076;5.264;2024-01-11T05:01:11;27.8;;;15.4;;
67429;SDS011;54298;52.076;5.264;2024-01-11T05:02:47;31.9;;;15.7;;
67429;SDS011;54298;52.076;5.264;2024-01-11T05:05:59;25.2;;;15.4;;
67429;SDS011;54298;52.076;5.264;2024-01-11T05:07:36;22.7;;;14.7;;
67429;SDS011;54298;52.076;5.264;2024-01-11T05:09:12;22.9;;;14.8;;
67429;SDS011;54298;52.076;5.264;2024-01-11T05:12:24;25.9;;;15.4;;
67429;SDS011;54298;52.076;5.264;2024-01-11T05:13:59;33.1;;;16.7;;
67429;SDS011;54298;52.076;5.264;2024-01-11T05:15:35;28.3;;;16.11;;
67429;SDS011;54298;52.076;5.264;2024-01-11T05:18:48;25.4;;;15.8;;
67429;SDS011;54298;52.076;5.264;2024-01-11T05:20:25;26.8;;;16.0;;
67429;SDS011;54298;52.076;5.264;2024-01-11T05:22:01;26.6;;;15.4;;
67429;SDS011;54298;52.076;5.264;2024-01-11T05:23:39;28.3;;;15.4;;
67429;SDS011;54298;52.076;5.264;2024-01-11T05:26:52;27.3;;;15.9;;
67429;SDS011;54298;52.076;5.264;2024-01-11T05:28:28;25.0;;;14.4;;
67429;SDS011;54298;52.076;5.264;2024-01-11T05:30:04;28.2;;;16.0;;
67429;SDS011;54298;52.076;5.264;2024-01-11T05:33:17;20.6;;;14.9;;
67429;SDS011;54298;52.076;5.264;2024-01-11T05:34:53;26.9;;;15.9;;
67429;SDS011;54298;52.076;5.264;2024-01-11T05:36:29;33.5;;;17.41;;
67429;SDS011;54298;52.076;5.264;2024-01-11T05:39:41;34.81;;;16.2;;
67429;SDS011;54298;52.076;5.264;2024-01-11T05:41:17;26.1;;;15.8;;
67429;SDS011;54298;52.076;5.264;2024-01-11T05:42:53;32.6;;;18.5;;
67429;SDS011;54298;52.076;5.264;2024-01-11T05:46:05;28.4;;;16.61;;
67429;SDS011;54298;52.076;5.264;2024-01-11T05:47:44;26.6;;;17.11;;
67429;SDS011;54298;52.076;5.264;2024-01-11T05:49:20;32.1;;;17.41;;
67429;SDS011;54298;52.076;5.264;2024-01-11T05:50:56;32.8;;;18.2;;
67429;SDS011;54298;52.076;5.264;2024-01-11T05:54:08;27.0;;;16.61;;
67429;SDS011;54298;52.076;5.264;2024-01-11T05:55:44;29.8;;;18.11;;
67429;SDS011;54298;52.076;5.264;2024-01-11T05:57:20;24.9;;;16.5;;
67429;SDS011;54298;52.076;5.264;2024-01-11T06:00:32;31.0;;;16.5;;
67429;SDS011;54298;52.076;5.264;2024-01-11T06:02:09;30.2;;;18.0;;
67429;SDS011;54298;52.076;5.264;2024-01-11T06:03:45;32.4;;;16.7;;
67429;SDS011;54298;52.076;5.264;2024-01-11T06:06:57;34.81;;;16.8;;
67429;SDS011;54298;52.076;5.264;2024-01-11T06:08:33;25.5;;;15.5;;
67429;SDS011;54298;52.076;5.264;2024-01-11T06:10:09;28.8;;;15.6;;
67429;SDS011;54298;52.076;5.264;2024-01-11T06:11:45;27.0;;;16.11;;
67429;SDS011;54298;52.076;5.264;2024-01-11T06:14:58;27.6;;;16.3;;
67429;SDS011;54298;52.076;5.264;2024-01-11T06:16:34;28.5;;;16.2;;
67429;SDS011;54298;52.076;5.264;2024-01-11T06:18:10;25.7;;;16.2;;
67429;SDS011;54298;52.076;5.264;2024-01-11T06:21:22;28.1;;;16.61;;
67429;SDS011;54298;52.076;5.264;2024-01-11T06:22:58;26.2;;;16.2;;
67429;SDS011;54298;52.076;5.264;2024-01-11T06:24:34;26.1;;;15.3;;
67429;SDS011;54298;52.076;5.264;2024-01-11T06:27:46;29.7;;;17.41;;
67429;SDS011;54298;52.076;5.264;2024-01-11T06:29:22;27.8;;;16.8;;
67429;SDS011;54298;52.076;5.264;2024-01-11T06:30:59;29.9;;;17.41;;
67429;SDS011;54298;52.076;5.264;2024-01-11T06:34:11;22.9;;;16.0;;
67429;SDS011;54298;52.076;5.264;2024-01-11T06:35:47;26.9;;;16.5;;
67429;SDS011;54298;52.076;5.264;2024-01-11T06:37:23;29.7;;;15.8;;
67429;SDS011;54298;52.076;5.264;2024-01-11T06:38:59;27.3;;;15.6;;
67429;SDS011;54298;52.076;5.264;2024-01-11T06:42:11;31.6;;;16.9;;
67429;SDS011;54298;52.076;5.264;2024-01-11T06:43:47;26.4;;;16.7;;
67429;SDS011;54298;52.076;5.264;2024-01-11T06:45:23;29.2;;;17.0;;
67429;SDS011;54298;52.076;5.264;2024-01-11T06:48:36;30.1;;;17.41;;
67429;SDS011;54298;52.076;5.264;2024-01-11T06:50:12;27.1;;;18.11;;
67429;SDS011;54298;52.076;5.264;2024-01-11T06:51:48;31.4;;;18.2;;
67429;SDS011;54298;52.076;5.264;2024-01-11T06:55:00;35.71;;;18.7;;
67429;SDS011;54298;52.076;5.264;2024-01-11T06:56:36;30.9;;;18.7;;
67429;SDS011;54298;52.076;5.264;2024-01-11T06:58:12;32.4;;;18.91;;
67429;SDS011;54298;52.076;5.264;2024-01-11T07:01:24;31.4;;;17.41;;
67429;SDS011;54298;52.076;5.264;2024-01-11T07:03:00;33.4;;;18.7;;
67429;SDS011;54298;52.076;5.264;2024-01-11T07:04:36;28.7;;;17.91;;
67429;SDS011;54298;52.076;5.264;2024-01-11T07:06:13;28.5;;;17.2;;
67429;SDS011;54298;52.076;5.264;2024-01-11T07:09:25;29.0;;;17.5;;
67429;SDS011;54298;52.076;5.264;2024-01-11T07:11:01;30.1;;;17.8;;
67429;SDS011;54298;52.076;5.264;2024-01-11T07:12:38;28.7;;;19.2;;
67429;SDS011;54298;52.076;5.264;2024-01-11T07:15:51;31.5;;;19.7;;
67429;SDS011;54298;52.076;5.264;2024-01-11T07:17:30;31.0;;;18.2;;
67429;SDS011;54298;52.076;5.264;2024-01-11T07:19:06;34.1;;;19.8;;
67429;SDS011;54298;52.076;5.264;2024-01-11T07:22:18;33.5;;;19.3;;
67429;SDS011;54298;52.076;5.264;2024-01-11T07:23:55;34.21;;;19.41;;
67429;SDS011;54298;52.076;5.264;2024-01-11T07:25:31;32.71;;;19.5;;
67429;SDS011;54298;52.076;5.264;2024-01-11T07:27:07;33.9;;;18.8;;
67429;SDS011;54298;52.076;5.264;2024-01-11T07:30:19;31.0;;;19.5;;
67429;SDS011;54298;52.076;5.264;2024-01-11T07:31:55;30.2;;;18.5;;
67429;SDS011;54298;52.076;5.264;2024-01-11T07:33:31;30.2;;;17.7;;
67429;SDS011;54298;52.076;5.264;2024-01-11T07:36:44;35.31;;;20.11;;
67429;SDS011;54298;52.076;5.264;2024-01-11T07:38:20;35.21;;;19.61;;
67429;SDS011;54298;52.076;5.264;2024-01-11T07:39:56;29.7;;;19.11;;
67429;SDS011;54298;52.076;5.264;2024-01-11T07:43:08;38.21;;;22.6;;
67429;SDS011;54298;52.076;5.264;2024-01-11T07:44:45;36.5;;;21.0;;
67429;SDS011;54298;52.076;5.264;2024-01-11T07:46:21;32.4;;;20.2;;
67429;SDS011;54298;52.076;5.264;2024-01-11T07:49:33;27.8;;;19.11;;
67429;SDS011;54298;52.076;5.264;2024-01-11T07:51:09;33.5;;;18.91;;
67429;SDS011;54298;52.076;5.264;2024-01-11T07:52:45;34.71;;;18.11;;
67429;SDS011;54298;52.076;5.264;2024-01-11T07:54:21;30.7;;;17.0;;
67429;SDS011;54298;52.076;5.264;2024-01-11T07:57:33;33.6;;;18.11;;
67429;SDS011;54298;52.076;5.264;2024-01-11T07:59:10;30.4;;;18.41;;
67429;SDS011;54298;52.076;5.264;2024-01-11T08:00:47;32.8;;;18.61;;
67429;SDS011;54298;52.076;5.264;2024-01-11T08:04:03;28.9;;;17.8;;
67429;SDS011;54298;52.076;5.264;2024-01-11T08:05:40;36.1;;;19.41;;
67429;SDS011;54298;52.076;5.264;2024-01-11T08:07:16;29.1;;;18.3;;
67429;SDS011;54298;52.076;5.264;2024-01-11T08:10:28;35.6;;;19.91;;
67429;SDS011;54298;52.076;5.264;2024-01-11T08:12:04;33.6;;;19.7;;
67429;SDS011;54298;52.076;5.264;2024-01-11T08:13:41;36.1;;;20.3;;
67429;SDS011;54298;52.076;5.264;2024-01-11T08:15:17;28.3;;;18.7;;
67429;SDS011;54298;52.076;5.264;2024-01-11T08:18:30;40.1;;;21.0;;
67429;SDS011;54298;52.076;5.264;2024-01-11T08:20:06;32.1;;;19.3;;
67429;SDS011;54298;52.076;5.264;2024-01-11T08:21:43;28.8;;;18.91;;
67429;SDS011;54298;52.076;5.264;2024-01-11T08:24:55;32.9;;;19.7;;
67429;SDS011;54298;52.076;5.264;2024-01-11T08:26:31;36.4;;;20.41;;
67429;SDS011;54298;52.076;5.264;2024-01-11T08:28:07;33.3;;;19.91;;
67429;SDS011;54298;52.076;5.264;2024-01-11T08:31:19;35.71;;;20.5;;
67429;SDS011;54298;52.076;5.264;2024-01-11T08:32:55;38.0;;;20.3;;
67429;SDS011;54298;52.076;5.264;2024-01-11T08:34:31;33.21;;;20.9;;
67429;SDS011;54298;52.076;5.264;2024-01-11T08:36:07;37.31;;;20.6;;
67429;SDS011;54298;52.076;5.264;2024-01-11T08:39:20;36.21;;;20.5;;
67429;SDS011;54298;52.076;5.264;2024-01-11T08:40:56;36.6;;;21.8;;
67429;SDS011;54298;52.076;5.264;2024-01-11T08:42:32;33.21;;;19.91;;
67429;SDS011;54298;52.076;5.264;2024-01-11T08:45:45;38.6;;;20.3;;
67429;SDS011;54298;52.076;5.264;2024-01-11T08:47:24;36.71;;;20.2;;
67429;SDS011;54298;52.076;5.264;2024-01-11T08:49:00;36.0;;;19.0;;
67429;SDS011;54298;52.076;5.264;2024-01-11T08:52:13;37.21;;;19.91;;
67429;SDS011;54298;52.076;5.264;2024-01-11T08:53:49;32.5;;;19.7;;
67429;SDS011;54298;52.076;5.264;2024-01-11T08:55:26;36.4;;;20.11;;
67429;SDS011;54298;52.076;5.264;2024-01-11T08:57:02;35.81;;;20.6;;
67429;SDS011;54298;52.076;5.264;2024-01-11T09:00:15;36.9;;;20.7;;
67429;SDS011;54298;52.076;5.264;2024-01-11T09:01:51;35.4;;;21.0;;
67429;SDS011;54298;52.076;5.264;2024-01-11T09:03:27;32.8;;;18.41;;
67429;SDS011;54298;52.076;5.264;2024-01-11T09:06:40;35.5;;;20.7;;
67429;SDS011;54298;52.076;5.264;2024-01-11T09:08:16;30.4;;;20.2;;
67429;SDS011;54298;52.076;5.264;2024-01-11T09:09:52;34.4;;;20.3;;
67429;SDS011;54298;52.076;5.264;2024-01-11T09:13:04;33.71;;;19.61;;
67429;SDS011;54298;52.076;5.264;2024-01-11T09:14:41;33.5;;;20.8;;
67429;SDS011;54298;52.076;5.264;2024-01-11T09:16:17;38.6;;;22.4;;
67429;SDS011;54298;52.076;5.264;2024-01-11T09:19:29;38.4;;;20.11;;
67429;SDS011;54298;52.076;5.264;2024-01-11T09:21:05;37.1;;;20.9;;
67429;SDS011;54298;52.076;5.264;2024-01-11T09:22:41;32.71;;;20.41;;
67429;SDS011;54298;52.076;5.264;2024-01-11T09:24:17;38.1;;;20.41;;
67429;SDS011;54298;52.076;5.264;2024-01-11T09:27:29;31.1;;;19.2;;
67429;SDS011;54298;52.076;5.264;2024-01-11T09:29:05;29.9;;;17.61;;
67429;SDS011;54298;52.076;5.264;2024-01-11T09:30:41;31.6;;;18.0;;
67429;SDS011;54298;52.076;5.264;2024-01-11T09:33:54;29.5;;;17.8;;
67429;SDS011;54298;52.076;5.264;2024-01-11T09:35:30;33.71;;;18.41;;
67429;SDS011;54298;52.076;5.264;2024-01-11T09:37:06;33.71;;;18.41;;
67429;SDS011;54298;52.076;5.264;2024-01-11T09:40:18;27.9;;;18.0;;
67429;SDS011;54298;52.076;5.264;2024-01-11T09:41:57;29.6;;;18.3;;
67429;SDS011;54298;52.076;5.264;2024-01-11T09:43:35;30.8;;;17.91;;
67429;SDS011;54298;52.076;5.264;2024-01-11T09:45:12;28.8;;;17.11;;
67429;SDS011;54298;52.076;5.264;2024-01-11T09:48:25;31.8;;;17.11;;
67429;SDS011;54298;52.076;5.264;2024-01-11T09:50:03;31.3;;;18.2;;
67429;SDS011;54298;52.076;5.264;2024-01-11T09:51:40;27.2;;;17.8;;
67429;SDS011;54298;52.076;5.264;2024-01-11T09:54:57;29.8;;;17.7;;
67429;SDS011;54298;52.076;5.264;2024-01-11T09:56:34;31.0;;;17.41;;
67429;SDS011;54298;52.076;5.264;2024-01-11T09:58:10;31.2;;;17.5;;
67429;SDS011;54298;52.076;5.264;2024-01-11T09:59:47;30.8;;;17.8;;
67429;SDS011;54298;52.076;5.264;2024-01-11T10:03:03;28.7;;;17.61;;
67429;SDS011;54298;52.076;5.264;2024-01-11T10:04:41;37.1;;;19.3;;
67429;SDS011;54298;52.076;5.264;2024-01-11T10:06:17;30.1;;;16.8;;
67429;SDS011;54298;52.076;5.264;2024-01-11T10:09:30;23.8;;;16.2;;
67429;SDS011;54298;52.076;5.264;2024-01-11T10:11:07;27.9;;;16.61;;
67429;SDS011;54298;52.076;5.264;2024-01-11T10:12:43;27.5;;;16.5;;
67429;SDS011;54298;52.076;5.264;2024-01-11T10:16:05;32.0;;;17.2;;
67429;SDS011;54298;52.076;5.264;2024-01-11T10:17:44;30.8;;;16.5;;
67429;SDS011;54298;52.076;5.264;2024-01-11T10:19:21;27.9;;;16.0;;
67429;SDS011;54298;52.076;5.264;2024-01-11T10:20:57;26.4;;;16.2;;
67429;SDS011;54298;52.076;5.264;2024-01-11T10:24:09;27.2;;;16.3;;
67429;SDS011;54298;52.076;5.264;2024-01-11T10:25:45;24.5;;;16.0;;
67429;SDS011;54298;52.076;5.264;2024-01-11T10:27:23;28.5;;;16.5;;
67429;SDS011;54298;52.076;5.264;2024-01-11T10:30:42;27.3;;;15.3;;
67429;SDS011;54298;52.076;5.264;2024-01-11T10:32:21;25.5;;;17.0;;
67429;SDS011;54298;52.076;5.264;2024-01-11T10:33:57;28.4;;;16.7;;
67429;SDS011;54298;52.076;5.264;2024-01-11T10:35:33;28.1;;;15.2;;
67429;SDS011;54298;52.076;5.264;2024-01-11T10:38:49;23.3;;;14.5;;
67429;SDS011;54298;52.076;5.264;2024-01-11T10:40:28;29.6;;;15.4;;
67429;SDS011;54298;52.076;5.264;2024-01-11T10:42:05;26.4;;;16.2;;
67429;SDS011;54298;52.076;5.264;2024-01-11T10:43:41;25.7;;;15.0;;
67429;SDS011;54298;52.076;5.264;2024-01-11T10:46:56;25.7;;;15.4;;
67429;SDS011;54298;52.076;5.264;2024-01-11T10:48:32;28.0;;;15.9;;
67429;SDS011;54298;52.076;5.264;2024-01-11T10:50:13;26.2;;;15.0;;
67429;SDS011;54298;52.076;5.264;2024-01-11T10:53:36;26.6;;;14.7;;
67429;SDS011;54298;52.076;5.264;2024-01-11T10:55:17;24.9;;;15.8;;
67429;SDS011;54298;52.076;5.264;2024-01-11T10:56:54;28.0;;;14.8;;
67429;SDS011;54298;52.076;5.264;2024-01-11T10:58:34;30.0;;;15.7;;
67429;SDS011;54298;52.076;5.264;2024-01-11T11:01:47;23.4;;;13.2;;
67429;SDS011;54298;52.076;5.264;2024-01-11T11:03:25;27.5;;;15.9;;
67429;SDS011;54298;52.076;5.264;2024-01-11T11:05:02;31.6;;;14.8;;
67429;SDS011;54298;52.076;5.264;2024-01-11T11:08:18;26.9;;;15.2;;
67429;SDS011;54298;52.076;5.264;2024-01-11T11:09:55;26.9;;;15.8;;
67429;SDS011;54298;52.076;5.264;2024-01-11T11:11:33;25.5;;;16.11;;
67429;SDS011;54298;52.076;5.264;2024-01-11T11:13:13;25.7;;;16.11;;
67429;SDS011;54298;52.076;5.264;2024-01-11T11:16:28;25.5;;;15.5;;
67429;SDS011;54298;52.076;5.264;2024-01-11T11:18:04;26.0;;;14.8;;
67429;SDS011;54298;52.076;5.264;2024-01-11T11:19:40;26.4;;;15.5;;
67429;SDS011;54298;52.076;5.264;2024-01-11T11:23:02;25.1;;;14.4;;
67429;SDS011;54298;52.076;5.264;2024-01-11T11:24:42;22.3;;;14.8;;
67429;SDS011;54298;52.076;5.264;2024-01-11T11:26:19;29.3;;;14.4;;
67429;SDS011;54298;52.076;5.264;2024-01-11T11:27:55;24.5;;;14.7;;
67429;SDS011;54298;52.076;5.264;2024-01-11T11:31:07;20.41;;;12.9;;
67429;SDS011;54298;52.076;5.264;2024-01-11T11:32:43;22.2;;;14.0;;
67429;SDS011;54298;52.076;5.264;2024-01-11T11:34:31;22.6;;;13.5;;
67429;SDS011;54298;52.076;5.264;2024-01-11T11:36:16;23.7;;;13.9;;
67429;SDS011;54298;52.076;5.264;2024-01-11T11:39:31;22.8;;;13.4;;
67429;SDS011;54298;52.076;5.264;2024-01-11T11:41:08;17.7;;;11.4;;
67429;SDS011;54298;52.076;5.264;2024-01-11T11:42:44;21.9;;;12.4;;
67429;SDS011;54298;52.076;5.264;2024-01-11T11:44:21;24.8;;;12.5;;
67429;SDS011;54298;52.076;5.264;2024-01-11T11:47:34;25.6;;;12.9;;
67429;SDS011;54298;52.076;5.264;2024-01-11T11:49:11;26.9;;;15.0;;
67429;SDS011;54298;52.076;5.264;2024-01-11T11:50:47;21.3;;;13.2;;
67429;SDS011;54298;52.076;5.264;2024-01-11T11:54:00;22.3;;;13.0;;
67429;SDS011;54298;52.076;5.264;2024-01-11T11:55:37;20.3;;;12.0;;
67429;SDS011;54298;52.076;5.264;2024-01-11T11:57:16;26.8;;;12.9;;
67429;SDS011;54298;52.076;5.264;2024-01-11T12:00:29;17.0;;;12.0;;
67429;SDS011;54298;52.076;5.264;2024-01-11T12:02:06;17.11;;;11.1;;
67429;SDS011;54298;52.076;5.264;2024-01-11T12:03:52;22.1;;;12.4;;
67429;SDS011;54298;52.076;5.264;2024-01-11T12:05:28;21.1;;;11.9;;
67429;SDS011;54298;52.076;5.264;2024-01-11T12:08:41;22.6;;;12.4;;
67429;SDS011;54298;52.076;5.264;2024-01-11T12:10:20;21.3;;;11.7;;
67429;SDS011;54298;52.076;5.264;2024-01-11T12:11:56;21.0;;;11.7;;
67429;SDS011;54298;52.076;5.264;2024-01-11T12:15:09;23.5;;;12.2;;
67429;SDS011;54298;52.076;5.264;2024-01-11T12:16:45;19.8;;;11.3;;
67429;SDS011;54298;52.076;5.264;2024-01-11T12:18:21;23.7;;;11.8;;
67429;SDS011;54298;52.076;5.264;2024-01-11T12:19:57;26.5;;;11.9;;
67429;SDS011;54298;52.076;5.264;2024-01-11T12:23:12;19.8;;;11.4;;
67429;SDS011;54298;52.076;5.264;2024-01-11T12:24:48;19.11;;;11.6;;
67429;SDS011;54298;52.076;5.264;2024-01-11T12:26:24;19.41;;;11.9;;
67429;SDS011;54298;52.076;5.264;2024-01-11T12:29:38;18.8;;;11.6;;
67429;SDS011;54298;52.076;5.264;2024-01-11T12:31:15;16.7;;;10.3;;
67429;SDS011;54298;52.076;5.264;2024-01-11T12:32:52;20.3;;;10.4;;
67429;SDS011;54298;52.076;5.264;2024-01-11T12:36:06;17.61;;;10.8;;
67429;SDS011;54298;52.076;5.264;2024-01-11T12:37:51;21.6;;;10.9;;